createdAt,value
2019-02-19T00:00:15.392Z,3.94
2019-02-19T00:01:15.572Z,3.84
2019-02-19T00:02:15.567Z,3.84
2019-02-19T00:03:15.710Z,3.86
2019-02-19T00:04:15.307Z,4.02
2019-02-19T00:05:15.539Z,4.06
2019-02-19T00:06:15.549Z,4.1
2019-02-19T00:07:15.263Z,4.13
2019-02-19T00:08:15.010Z,4.08
2019-02-19T00:09:15.259Z,4.12
2019-02-19T00:10:15.473Z,4.06
2019-02-19T00:11:15.217Z,3.98
2019-02-19T00:12:15.206Z,4.06
2019-02-19T00:13:15.476Z,3.99
2019-02-19T00:14:15.448Z,3.84
2019-02-19T00:15:15.068Z,3.88
2019-02-19T00:16:15.426Z,3.87
2019-02-19T00:17:15.427Z,3.88
2019-02-19T00:18:15.190Z,3.8
2019-02-19T00:19:15.150Z,3.88
2019-02-19T00:20:14.896Z,3.74
2019-02-19T00:21:15.373Z,3.8
2019-02-19T00:22:15.119Z,3.81
2019-02-19T00:23:15.121Z,3.81
2019-02-19T00:24:15.100Z,3.91
2019-02-19T00:25:15.112Z,3.84
2019-02-19T00:26:15.079Z,3.83
2019-02-19T00:27:15.061Z,3.88
2019-02-19T00:28:15.305Z,3.81
2019-02-19T00:29:15.045Z,3.92
2019-02-19T00:30:15.306Z,3.87
2019-02-19T00:31:15.019Z,3.8
2019-02-19T00:32:15.026Z,3.88
2019-02-19T00:33:14.997Z,3.74
2019-02-19T00:34:14.989Z,3.76
2019-02-19T00:35:15.046Z,3.68
2019-02-19T00:36:15.239Z,3.68
2019-02-19T00:37:14.984Z,3.68
2019-02-19T00:38:15.203Z,3.62
2019-02-19T00:39:15.197Z,3.59
2019-02-19T00:40:14.967Z,3.56
2019-02-19T00:41:15.172Z,3.53
2019-02-19T00:42:15.243Z,3.51
2019-02-19T00:43:14.896Z,3.5
2019-02-19T00:44:14.673Z,3.47
2019-02-19T00:45:21.258Z,3.45
2019-02-19T00:46:14.619Z,3.41
2019-02-19T00:47:14.859Z,3.44
2019-02-19T00:48:14.597Z,3.44
2019-02-19T00:49:14.823Z,3.47
2019-02-19T00:50:15.135Z,3.47
2019-02-19T00:51:15.061Z,3.47
2019-02-19T00:52:14.558Z,3.47
2019-02-19T00:53:14.792Z,3.41
2019-02-19T00:54:14.796Z,3.41
2019-02-19T00:55:15.115Z,3.42
2019-02-19T00:56:14.759Z,3.4
2019-02-19T00:57:15.011Z,3.37
2019-02-19T00:58:14.995Z,3.37
2019-02-19T00:59:14.753Z,3.41
2019-02-19T01:00:15.026Z,3.23
2019-02-19T01:01:14.714Z,3.22
2019-02-19T01:02:14.710Z,3.25
2019-02-19T01:03:14.966Z,3.28
2019-02-19T01:04:14.675Z,3.25
2019-02-19T01:05:14.500Z,3.22
2019-02-19T01:06:14.903Z,3.28
2019-02-19T01:07:14.667Z,3.23
2019-02-19T01:08:14.909Z,3.1
2019-02-19T01:09:14.647Z,3.16
2019-02-19T01:10:14.935Z,3.21
2019-02-19T01:11:14.854Z,3.11
2019-02-19T01:12:14.357Z,3.18
2019-02-19T01:13:14.937Z,3.16
2019-02-19T01:14:14.833Z,3.07
2019-02-19T01:15:14.615Z,3.19
2019-02-19T01:16:15.293Z,3.08
2019-02-19T01:17:14.794Z,3.14
2019-02-19T01:18:14.279Z,3.11
2019-02-19T01:19:14.269Z,3.21
2019-02-19T01:20:14.537Z,3.11
2019-02-19T01:21:14.247Z,3.26
2019-02-19T01:22:14.524Z,3.19
2019-02-19T01:23:14.472Z,3.18
2019-02-19T01:24:14.718Z,3.26
2019-02-19T01:25:14.815Z,3.22
2019-02-19T01:26:14.445Z,3.19
2019-02-19T01:27:14.694Z,3.23
2019-02-19T01:28:14.424Z,3.32
2019-02-19T01:29:14.178Z,3.29
2019-02-19T01:30:14.393Z,3.23
2019-02-19T01:31:14.153Z,3.25
2019-02-19T01:32:14.640Z,3.23
2019-02-19T01:33:14.623Z,3.25
2019-02-19T01:34:15.726Z,3.34
2019-02-19T01:35:14.115Z,3.34
2019-02-19T01:36:14.608Z,3.37
2019-02-19T01:37:14.329Z,3.37
2019-02-19T01:38:14.566Z,3.36
2019-02-19T01:39:14.303Z,3.26
2019-02-19T01:40:14.551Z,3.26
2019-02-19T01:41:14.282Z,3.23
2019-02-19T01:42:14.524Z,3.36
2019-02-19T01:43:14.262Z,3.5
2019-02-19T01:44:14.268Z,3.53
2019-02-19T01:45:14.350Z,3.6
2019-02-19T01:46:14.495Z,3.63
2019-02-19T01:47:14.215Z,3.74
2019-02-19T01:48:14.468Z,3.78
2019-02-19T01:49:13.955Z,3.8
2019-02-19T01:50:14.180Z,3.87
2019-02-19T01:51:13.942Z,3.81
2019-02-19T01:52:14.180Z,3.92
2019-02-19T01:53:14.168Z,3.92
2019-02-19T01:54:14.141Z,3.81
2019-02-19T01:55:14.394Z,3.95
2019-02-19T01:56:13.881Z,4.04
2019-02-19T01:57:14.369Z,4.04
2019-02-19T01:58:13.889Z,4.05
2019-02-19T01:59:14.087Z,4.02
2019-02-19T02:00:14.338Z,4.13
2019-02-19T02:01:14.327Z,4.19
2019-02-19T02:02:14.330Z,4.16
2019-02-19T02:03:13.798Z,4.16
2019-02-19T02:04:14.048Z,4.05
2019-02-19T02:05:14.035Z,4.08
2019-02-19T02:06:14.305Z,4.1
2019-02-19T02:07:14.016Z,4.08
2019-02-19T02:08:14.000Z,4.16
2019-02-19T02:09:14.237Z,4.13
2019-02-19T02:10:14.004Z,4.04
2019-02-19T02:11:14.222Z,4.06
2019-02-19T02:12:13.956Z,3.96
2019-02-19T02:13:14.207Z,4.04
2019-02-19T02:14:13.937Z,4.05
2019-02-19T02:15:14.239Z,3.99
2019-02-19T02:16:13.921Z,4.04
2019-02-19T02:17:13.925Z,3.99
2019-02-19T02:18:13.924Z,3.96
2019-02-19T02:19:13.670Z,3.86
2019-02-19T02:20:14.125Z,3.84
2019-02-19T02:21:13.866Z,3.86
2019-02-19T02:22:13.849Z,3.81
2019-02-19T02:23:13.598Z,3.83
2019-02-19T02:24:14.084Z,3.87
2019-02-19T02:25:14.095Z,3.77
2019-02-19T02:26:14.125Z,3.8
2019-02-19T02:27:13.808Z,3.74
2019-02-19T02:28:14.041Z,3.8
2019-02-19T02:29:14.054Z,3.65
2019-02-19T02:30:14.053Z,3.68
2019-02-19T02:31:13.811Z,3.74
2019-02-19T02:32:13.755Z,3.68
2019-02-19T02:33:13.754Z,3.69
2019-02-19T02:34:13.982Z,3.69
2019-02-19T02:35:16.044Z,3.59
2019-02-19T02:36:13.739Z,3.68
2019-02-19T02:37:13.765Z,3.69
2019-02-19T02:38:13.703Z,3.63
2019-02-19T02:39:13.932Z,3.59
2019-02-19T02:40:13.707Z,3.62
2019-02-19T02:41:13.686Z,3.58
2019-02-19T02:42:13.910Z,3.63
2019-02-19T02:43:13.643Z,3.56
2019-02-19T02:44:13.390Z,3.55
2019-02-19T02:45:13.967Z,3.59
2019-02-19T02:46:13.882Z,3.47
2019-02-19T02:47:13.381Z,3.51
2019-02-19T02:48:13.363Z,3.42
2019-02-19T02:49:13.832Z,3.48
2019-02-19T02:50:13.933Z,3.36
2019-02-19T02:51:13.833Z,3.42
2019-02-19T02:52:13.555Z,3.4
2019-02-19T02:53:13.542Z,3.41
2019-02-19T02:54:13.280Z,3.44
2019-02-19T02:55:13.860Z,3.4
2019-02-19T02:56:13.510Z,3.4
2019-02-19T02:57:13.763Z,3.41
2019-02-19T02:58:13.735Z,3.47
2019-02-19T02:59:13.472Z,3.36
2019-02-19T03:00:13.471Z,3.42
2019-02-19T03:01:13.705Z,3.42
2019-02-19T03:02:13.695Z,3.45
2019-02-19T03:03:13.435Z,3.41
2019-02-19T03:04:13.694Z,3.41
2019-02-19T03:05:13.710Z,3.47
2019-02-19T03:06:13.401Z,3.41
2019-02-19T03:07:13.394Z,3.37
2019-02-19T03:08:13.390Z,3.5
2019-02-19T03:09:13.623Z,3.42
2019-02-19T03:10:13.096Z,3.47
2019-02-19T03:11:13.364Z,3.45
2019-02-19T03:12:13.582Z,3.51
2019-02-19T03:13:13.573Z,3.51
2019-02-19T03:14:13.059Z,3.44
2019-02-19T03:15:13.325Z,3.45
2019-02-19T03:16:13.307Z,3.44
2019-02-19T03:17:13.306Z,3.37
2019-02-19T03:18:13.610Z,3.41
2019-02-19T03:19:13.535Z,3.45
2019-02-19T03:20:13.272Z,3.41
2019-02-19T03:21:13.248Z,3.28
2019-02-19T03:22:13.509Z,3.25
2019-02-19T03:23:13.530Z,3.26
2019-02-19T03:24:13.224Z,3.14
2019-02-19T03:25:13.520Z,3
2019-02-19T03:26:12.947Z,2.93
2019-02-19T03:27:13.428Z,2.9
2019-02-19T03:28:12.922Z,2.9
2019-02-19T03:29:13.171Z,2.97
2019-02-19T03:30:13.325Z,2.9
2019-02-19T03:31:13.401Z,2.89
2019-02-19T03:32:13.386Z,2.74
2019-02-19T03:33:13.380Z,2.89
2019-02-19T03:34:13.128Z,2.85
2019-02-19T03:35:13.478Z,2.83
2019-02-19T03:36:13.373Z,2.74
2019-02-19T03:37:13.324Z,2.74
2019-02-19T03:38:13.051Z,2.72
2019-02-19T03:39:13.297Z,2.75
2019-02-19T03:40:13.046Z,2.72
2019-02-19T03:41:13.311Z,2.72
2019-02-19T03:42:13.032Z,2.71
2019-02-19T03:43:13.035Z,2.62
2019-02-19T03:44:12.990Z,2.68
2019-02-19T03:45:13.268Z,2.61
2019-02-19T03:46:16.695Z,2.54
2019-02-19T03:47:12.958Z,2.61
2019-02-19T03:48:12.941Z,2.56
2019-02-19T03:49:13.199Z,2.5
2019-02-19T03:50:12.693Z,2.42
2019-02-19T03:51:12.658Z,2.53
2019-02-19T03:52:13.155Z,2.51
2019-02-19T03:53:12.893Z,2.44
2019-02-19T03:54:13.131Z,2.44
2019-02-19T03:55:13.113Z,2.53
2019-02-19T03:56:12.871Z,2.49
2019-02-19T03:57:13.101Z,2.54
2019-02-19T03:58:13.089Z,2.49
2019-02-19T03:59:13.131Z,2.54
2019-02-19T04:00:12.828Z,2.61
2019-02-19T04:01:13.050Z,2.71
2019-02-19T04:02:12.793Z,2.77
2019-02-19T04:03:13.022Z,2.86
2019-02-19T04:04:13.019Z,2.92
2019-02-19T04:05:13.031Z,3.03
2019-02-19T04:06:12.744Z,3.1
2019-02-19T04:07:12.989Z,3.26
2019-02-19T04:08:12.979Z,3.28
2019-02-19T04:09:12.494Z,3.23
2019-02-19T04:10:12.698Z,3.37
2019-02-19T04:11:12.697Z,3.42
2019-02-19T04:12:12.693Z,3.5
2019-02-19T04:13:12.916Z,3.41
2019-02-19T04:14:12.913Z,3.59
2019-02-19T04:15:12.653Z,3.48
2019-02-19T04:16:20.955Z,3.51
2019-02-19T04:17:12.868Z,3.58
2019-02-19T04:18:12.876Z,3.63
2019-02-19T04:19:12.851Z,3.59
2019-02-19T04:20:12.608Z,3.65
2019-02-19T04:21:12.827Z,3.62
2019-02-19T04:22:12.832Z,3.69
2019-02-19T04:23:12.554Z,3.69
2019-02-19T04:24:12.564Z,3.73
2019-02-19T04:25:12.548Z,3.68
2019-02-19T04:26:14.055Z,3.7
2019-02-19T04:27:12.791Z,3.83
2019-02-19T04:28:12.776Z,3.91
2019-02-19T04:29:12.513Z,3.86
2019-02-19T04:30:12.779Z,3.8
2019-02-19T04:31:12.732Z,3.83
2019-02-19T04:32:12.722Z,3.87
2019-02-19T04:33:12.708Z,3.83
2019-02-19T04:34:12.756Z,3.84
2019-02-19T04:35:13.520Z,3.84
2019-02-19T04:36:12.692Z,3.86
2019-02-19T04:37:12.676Z,3.88
2019-02-19T04:38:12.422Z,3.92
2019-02-19T04:39:12.404Z,3.87
2019-02-19T04:40:12.384Z,3.87
2019-02-19T04:41:12.648Z,3.94
2019-02-19T04:42:12.364Z,3.86
2019-02-19T04:43:12.369Z,3.77
2019-02-19T04:44:12.663Z,3.96
2019-02-19T04:45:12.334Z,3.83
2019-02-19T04:46:12.561Z,3.91
2019-02-19T04:47:12.061Z,3.91
2019-02-19T04:48:12.550Z,3.81
2019-02-19T04:49:12.322Z,3.91
2019-02-19T04:50:12.322Z,3.78
2019-02-19T04:51:12.284Z,3.86
2019-02-19T04:52:12.276Z,3.91
2019-02-19T04:53:12.253Z,3.84
2019-02-19T04:54:12.251Z,3.86
2019-02-19T04:55:12.419Z,3.77
2019-02-19T04:56:12.233Z,3.83
2019-02-19T04:57:12.220Z,3.8
2019-02-19T04:58:11.955Z,3.87
2019-02-19T04:59:12.454Z,3.83
2019-02-19T05:00:12.171Z,3.84
2019-02-19T05:01:12.169Z,3.73
2019-02-19T05:02:12.414Z,3.8
2019-02-19T05:03:12.383Z,3.73
2019-02-19T05:04:12.382Z,3.73
2019-02-19T05:05:15.548Z,3.68
2019-02-19T05:06:12.130Z,3.7
2019-02-19T05:07:12.362Z,3.77
2019-02-19T05:08:12.086Z,3.76
2019-02-19T05:09:12.074Z,3.73
2019-02-19T05:10:12.107Z,3.8
2019-02-19T05:11:12.083Z,3.69
2019-02-19T05:12:11.799Z,3.66
2019-02-19T05:13:12.041Z,3.68
2019-02-19T05:14:12.285Z,3.7
2019-02-19T05:15:11.776Z,3.66
2019-02-19T05:16:11.765Z,3.69
2019-02-19T05:17:12.338Z,3.69
2019-02-19T05:18:11.979Z,3.62
2019-02-19T05:19:12.232Z,3.63
2019-02-19T05:20:11.741Z,3.63
2019-02-19T05:21:12.198Z,3.63
2019-02-19T05:22:12.200Z,3.63
2019-02-19T05:23:12.376Z,3.6
2019-02-19T05:24:12.173Z,3.65
2019-02-19T05:25:11.913Z,3.58
2019-02-19T05:26:11.898Z,3.63
2019-02-19T05:27:12.136Z,3.58
2019-02-19T05:28:11.883Z,3.58
2019-02-19T05:29:11.864Z,3.66
2019-02-19T05:30:12.171Z,3.6
2019-02-19T05:31:11.847Z,3.56
2019-02-19T05:32:12.089Z,3.62
2019-02-19T05:33:11.578Z,3.51
2019-02-19T05:34:11.816Z,3.5
2019-02-19T05:35:11.826Z,3.53
2019-02-19T05:36:13.785Z,3.62
2019-02-19T05:37:12.045Z,3.56
2019-02-19T05:38:12.029Z,3.5
2019-02-19T05:39:11.753Z,3.59
2019-02-19T05:40:12.040Z,3.58
2019-02-19T05:41:11.992Z,3.6
2019-02-19T05:42:11.975Z,3.59
2019-02-19T05:43:11.732Z,3.6
2019-02-19T05:44:11.462Z,3.56
2019-02-19T05:45:11.733Z,3.56
2019-02-19T05:46:11.935Z,3.59
2019-02-19T05:47:11.695Z,3.56
2019-02-19T05:48:11.658Z,3.59
2019-02-19T05:49:11.667Z,3.56
2019-02-19T05:50:11.406Z,3.65
2019-02-19T05:51:11.884Z,3.63
2019-02-19T05:52:11.632Z,3.6
2019-02-19T05:53:11.606Z,3.69
2019-02-19T05:54:11.861Z,3.66
2019-02-19T05:55:11.592Z,3.73
2019-02-19T05:56:11.588Z,3.65
2019-02-19T05:57:11.323Z,3.73
2019-02-19T05:58:11.811Z,3.7
2019-02-19T05:59:11.803Z,3.8
2019-02-19T06:00:11.791Z,3.8
2019-02-19T06:01:11.530Z,3.76
2019-02-19T06:02:11.783Z,3.87
2019-02-19T06:03:11.503Z,3.84
2019-02-19T06:04:11.748Z,3.84
2019-02-19T06:05:11.747Z,3.78
2019-02-19T06:06:11.473Z,3.81
2019-02-19T06:07:11.216Z,3.78
2019-02-19T06:08:11.463Z,3.83
2019-02-19T06:09:11.197Z,3.83
2019-02-19T06:10:11.697Z,3.87
2019-02-19T06:11:11.702Z,3.94
2019-02-19T06:12:11.663Z,3.94
2019-02-19T06:13:11.417Z,3.98
2019-02-19T06:14:11.418Z,3.98
2019-02-19T06:15:11.635Z,3.99
2019-02-19T06:16:11.393Z,4.05
2019-02-19T06:17:11.360Z,4.02
2019-02-19T06:18:11.358Z,3.98
2019-02-19T06:19:11.603Z,3.99
2019-02-19T06:20:11.655Z,4.06
2019-02-19T06:21:11.320Z,4.05
2019-02-19T06:22:11.320Z,4.04
2019-02-19T06:23:11.558Z,4.06
2019-02-19T06:24:11.307Z,3.94
2019-02-19T06:25:11.690Z,4.06
2019-02-19T06:26:11.281Z,4.05
2019-02-19T06:27:11.510Z,4.08
2019-02-19T06:28:11.028Z,4.05
2019-02-19T06:29:11.503Z,4.05
2019-02-19T06:30:11.002Z,4.08
2019-02-19T06:31:11.482Z,4.1
2019-02-19T06:32:11.450Z,4.2
2019-02-19T06:33:11.447Z,4.19
2019-02-19T06:34:11.433Z,4.13
2019-02-19T06:35:10.950Z,4.13
2019-02-19T06:36:11.675Z,4.2
2019-02-19T06:37:11.418Z,4.17
2019-02-19T06:38:11.406Z,4.22
2019-02-19T06:39:11.375Z,4.26
2019-02-19T06:40:11.117Z,4.34
2019-02-19T06:41:11.106Z,4.34
2019-02-19T06:42:11.369Z,4.37
2019-02-19T06:43:10.870Z,4.41
2019-02-19T06:44:11.081Z,4.42
2019-02-19T06:45:11.075Z,4.48
2019-02-19T06:46:11.068Z,4.5
2019-02-19T06:47:12.699Z,4.6
2019-02-19T06:48:11.060Z,4.52
2019-02-19T06:49:11.031Z,4.59
2019-02-19T06:50:11.283Z,4.7
2019-02-19T06:51:11.262Z,4.7
2019-02-19T06:52:11.006Z,4.74
2019-02-19T06:53:11.261Z,4.77
2019-02-19T06:54:11.245Z,4.84
2019-02-19T06:55:10.735Z,4.82
2019-02-19T06:56:10.985Z,4.89
2019-02-19T06:57:10.946Z,4.96
2019-02-19T06:58:10.951Z,5
2019-02-19T06:59:11.225Z,5.04
2019-02-19T07:00:10.932Z,5.15
2019-02-19T07:01:11.177Z,5.17
2019-02-19T07:02:10.921Z,5.23
2019-02-19T07:03:11.150Z,5.3
2019-02-19T07:04:10.959Z,5.32
2019-02-19T07:05:10.639Z,5.36
2019-02-19T07:06:10.882Z,5.44
2019-02-19T07:07:11.113Z,5.59
2019-02-19T07:08:10.874Z,5.62
2019-02-19T07:09:10.848Z,5.65
2019-02-19T07:10:11.085Z,5.61
2019-02-19T07:11:11.084Z,5.68
2019-02-19T07:12:10.568Z,5.76
2019-02-19T07:13:10.806Z,5.76
2019-02-19T07:14:10.795Z,5.87
2019-02-19T07:15:11.038Z,5.87
2019-02-19T07:16:10.795Z,5.97
2019-02-19T07:17:17.797Z,5.98
2019-02-19T07:18:11.034Z,5.86
2019-02-19T07:19:10.994Z,5.93
2019-02-19T07:20:10.761Z,5.93
2019-02-19T07:21:10.738Z,5.89
2019-02-19T07:22:10.726Z,5.89
2019-02-19T07:23:10.992Z,6.01
2019-02-19T07:24:10.709Z,5.9
2019-02-19T07:25:10.998Z,5.94
2019-02-19T07:26:10.452Z,6.05
2019-02-19T07:27:10.696Z,6.11
2019-02-19T07:28:10.938Z,6.14
2019-02-19T07:29:10.686Z,6.05
2019-02-19T07:30:10.926Z,6.08
2019-02-19T07:31:10.938Z,6.02
2019-02-19T07:32:10.917Z,6.01
2019-02-19T07:33:10.677Z,5.98
2019-02-19T07:34:10.901Z,6.04
2019-02-19T07:35:10.868Z,6.05
2019-02-19T07:36:10.864Z,6.04
2019-02-19T07:37:10.612Z,6.01
2019-02-19T07:38:10.365Z,5.97
2019-02-19T07:39:10.849Z,5.98
2019-02-19T07:40:10.587Z,6.01
2019-02-19T07:41:10.561Z,6.02
2019-02-19T07:42:10.841Z,6.07
2019-02-19T07:43:10.809Z,6.04
2019-02-19T07:44:10.536Z,6.08
2019-02-19T07:45:10.527Z,6.08
2019-02-19T07:46:10.516Z,6.12
2019-02-19T07:47:10.769Z,6.16
2019-02-19T07:48:10.509Z,6.14
2019-02-19T07:49:10.751Z,6.17
2019-02-19T07:50:10.745Z,6.28
2019-02-19T07:51:10.724Z,6.24
2019-02-19T07:52:10.729Z,6.22
2019-02-19T07:53:10.549Z,6.28
2019-02-19T07:54:10.504Z,6.27
2019-02-19T07:55:10.470Z,6.3
2019-02-19T07:56:10.445Z,6.26
2019-02-19T07:57:10.673Z,6.35
2019-02-19T07:58:10.173Z,6.38
2019-02-19T07:59:10.180Z,6.38
2019-02-19T08:00:10.674Z,6.45
2019-02-19T08:01:10.392Z,6.46
2019-02-19T08:02:10.387Z,6.63
2019-02-19T08:03:10.636Z,6.57
2019-02-19T08:04:10.634Z,6.59
2019-02-19T08:05:10.614Z,6.64
2019-02-19T08:06:10.384Z,6.7
2019-02-19T08:07:10.612Z,6.62
2019-02-19T08:08:10.337Z,6.69
2019-02-19T08:09:10.591Z,6.69
2019-02-19T08:10:10.326Z,6.78
2019-02-19T08:11:10.566Z,6.74
2019-02-19T08:12:10.546Z,6.78
2019-02-19T08:13:10.576Z,6.85
2019-02-19T08:14:10.307Z,6.88
2019-02-19T08:15:10.559Z,6.92
2019-02-19T08:16:10.519Z,7
2019-02-19T08:17:10.508Z,7.1
2019-02-19T08:18:10.259Z,7.36
2019-02-19T08:19:10.254Z,7.5
2019-02-19T08:20:19.664Z,7.51
2019-02-19T08:21:10.249Z,7.58
2019-02-19T08:22:10.235Z,7.57
2019-02-19T08:23:10.462Z,7.61
2019-02-19T08:24:10.216Z,7.6
2019-02-19T08:25:10.202Z,7.47
2019-02-19T08:26:10.452Z,7.57
2019-02-19T08:27:10.191Z,7.48
2019-02-19T08:28:10.434Z,7.5
2019-02-19T08:29:18.293Z,7.54
2019-02-19T08:30:11.141Z,7.58
2019-02-19T08:31:10.421Z,7.58
2019-02-19T08:32:10.406Z,7.57
2019-02-19T08:33:10.170Z,7.72
2019-02-19T08:34:10.163Z,7.75
2019-02-19T08:35:10.404Z,7.75
2019-02-19T08:36:10.390Z,7.82
2019-02-19T08:37:11.223Z,7.82
2019-02-19T08:38:10.358Z,7.82
2019-02-19T08:39:10.125Z,7.91
2019-02-19T08:40:10.110Z,7.98
2019-02-19T08:41:10.367Z,8.09
2019-02-19T08:42:10.092Z,8.16
2019-02-19T08:43:10.354Z,8.28
2019-02-19T08:44:10.978Z,8.27
2019-02-19T08:45:10.076Z,8.34
2019-02-19T08:46:10.084Z,8.36
2019-02-19T08:47:10.053Z,8.49
2019-02-19T08:48:10.305Z,8.51
2019-02-19T08:49:10.051Z,8.61
2019-02-19T08:50:10.292Z,8.6
2019-02-19T08:51:10.040Z,8.7
2019-02-19T08:52:10.279Z,8.61
2019-02-19T08:53:10.266Z,8.74
2019-02-19T08:54:10.272Z,8.78
2019-02-19T08:55:10.267Z,8.71
2019-02-19T08:56:10.008Z,8.7
2019-02-19T08:57:11.050Z,8.81
2019-02-19T08:58:10.238Z,8.71
2019-02-19T08:59:10.242Z,8.74
2019-02-19T09:00:10.251Z,8.85
2019-02-19T09:01:10.215Z,8.87
2019-02-19T09:02:10.238Z,8.91
2019-02-19T09:03:10.216Z,9.1
2019-02-19T09:04:09.947Z,9.08
2019-02-19T09:05:09.983Z,9.13
2019-02-19T09:06:10.201Z,9.29
2019-02-19T09:07:10.337Z,9.4
2019-02-19T09:08:10.183Z,9.46
2019-02-19T09:09:10.183Z,9.47
2019-02-19T09:10:09.668Z,9.48
2019-02-19T09:11:10.203Z,9.55
2019-02-19T09:12:11.492Z,9.55
2019-02-19T09:13:10.187Z,9.62
2019-02-19T09:14:10.136Z,9.62
2019-02-19T09:15:11.181Z,9.72
2019-02-19T09:16:10.137Z,9.68
2019-02-19T09:17:10.133Z,9.68
2019-02-19T09:18:10.118Z,9.66
2019-02-19T09:19:10.112Z,9.66
2019-02-19T09:20:09.611Z,9.65
2019-02-19T09:21:10.104Z,9.72
2019-02-19T09:22:10.110Z,9.77
2019-02-19T09:23:10.101Z,9.77
2019-02-19T09:24:14.249Z,9.74
2019-02-19T09:25:09.841Z,9.76
2019-02-19T09:26:09.850Z,9.77
2019-02-19T09:27:09.826Z,9.77
2019-02-19T09:28:10.075Z,9.76
2019-02-19T09:29:09.819Z,9.8
2019-02-19T09:30:09.562Z,9.76
2019-02-19T09:31:10.069Z,9.86
2019-02-19T09:32:10.062Z,9.86
2019-02-19T09:33:09.825Z,9.84
2019-02-19T09:34:09.848Z,9.98
2019-02-19T09:35:09.787Z,9.97
2019-02-19T09:36:09.785Z,9.89
2019-02-19T09:37:10.016Z,9.87
2019-02-19T09:38:10.568Z,9.84
2019-02-19T09:39:10.031Z,9.87
2019-02-19T09:40:10.024Z,9.86
2019-02-19T09:41:10.006Z,10.04
2019-02-19T09:42:09.760Z,10.01
2019-02-19T09:43:09.747Z,10.07
2019-02-19T09:44:09.733Z,10.02
2019-02-19T09:45:09.759Z,10.13
2019-02-19T09:46:09.730Z,10.19
2019-02-19T09:47:10.026Z,10.09
2019-02-19T09:48:09.979Z,10.2
2019-02-19T09:49:10.025Z,10.1
2019-02-19T09:50:09.959Z,10.23
2019-02-19T09:51:09.982Z,10.31
2019-02-19T09:52:09.982Z,10.28
2019-02-19T09:53:09.718Z,10.42
2019-02-19T09:54:09.935Z,10.38
2019-02-19T09:55:09.952Z,10.46
2019-02-19T09:56:09.962Z,10.4
2019-02-19T09:57:09.718Z,10.35
2019-02-19T09:58:09.713Z,10.54
2019-02-19T09:59:09.670Z,10.57
2019-02-19T10:00:09.701Z,10.59
2019-02-19T10:01:09.935Z,10.69
2019-02-19T10:02:09.905Z,10.82
2019-02-19T10:03:09.943Z,10.87
2019-02-19T10:04:09.942Z,10.99
2019-02-19T10:05:09.715Z,10.97
2019-02-19T10:06:09.640Z,11.12
2019-02-19T10:07:09.883Z,10.97
2019-02-19T10:08:09.930Z,11
2019-02-19T10:09:09.880Z,10.94
2019-02-19T10:10:09.888Z,10.86
2019-02-19T10:11:09.620Z,10.87
2019-02-19T10:12:09.862Z,10.78
2019-02-19T10:13:09.883Z,10.79
2019-02-19T10:14:09.621Z,10.76
2019-02-19T10:15:09.871Z,10.79
2019-02-19T10:16:09.863Z,10.78
2019-02-19T10:17:09.355Z,10.74
2019-02-19T10:18:15.266Z,10.72
2019-02-19T10:19:09.840Z,10.75
2019-02-19T10:20:09.649Z,10.74
2019-02-19T10:21:09.841Z,10.74
2019-02-19T10:22:09.821Z,10.74
2019-02-19T10:23:09.836Z,10.76
2019-02-19T10:24:09.843Z,10.75
2019-02-19T10:25:09.339Z,10.72
2019-02-19T10:26:09.571Z,10.78
2019-02-19T10:27:09.554Z,10.74
2019-02-19T10:28:09.843Z,10.75
2019-02-19T10:29:09.795Z,10.68
2019-02-19T10:30:09.821Z,10.72
2019-02-19T10:31:09.801Z,10.74
2019-02-19T10:32:10.581Z,10.81
2019-02-19T10:33:09.779Z,10.76
2019-02-19T10:34:09.762Z,10.74
2019-02-19T10:35:09.761Z,10.75
2019-02-19T10:36:09.768Z,10.72
2019-02-19T10:37:09.511Z,10.74
2019-02-19T10:38:09.529Z,10.76
2019-02-19T10:39:09.510Z,10.71
2019-02-19T10:40:09.517Z,10.76
2019-02-19T10:41:09.741Z,10.82
2019-02-19T10:42:09.746Z,10.84
2019-02-19T10:43:09.744Z,10.96
2019-02-19T10:44:09.743Z,10.97
2019-02-19T10:45:09.486Z,11.07
2019-02-19T10:46:09.723Z,11.17
2019-02-19T10:47:09.730Z,11.26
2019-02-19T10:48:09.465Z,11.3
2019-02-19T10:49:09.223Z,11.33
2019-02-19T10:50:09.701Z,11.41
2019-02-19T10:51:09.456Z,11.44
2019-02-19T10:52:09.696Z,11.43
2019-02-19T10:53:09.697Z,11.55
2019-02-19T10:54:09.688Z,11.57
2019-02-19T10:55:09.719Z,11.75
2019-02-19T10:56:09.441Z,11.73
2019-02-19T10:57:09.697Z,11.73
2019-02-19T10:58:11.463Z,11.83
2019-02-19T10:59:09.709Z,11.87
2019-02-19T11:00:09.689Z,11.97
2019-02-19T11:01:09.670Z,11.97
2019-02-19T11:02:09.174Z,12.09
2019-02-19T11:03:09.668Z,12.17
2019-02-19T11:04:09.662Z,12.22
2019-02-19T11:05:09.406Z,12.22
2019-02-19T11:06:09.413Z,12.32
2019-02-19T11:07:09.167Z,12.36
2019-02-19T11:08:09.187Z,12.35
2019-02-19T11:09:09.707Z,12.25
2019-02-19T11:10:09.648Z,12.4
2019-02-19T11:11:09.654Z,12.43
2019-02-19T11:12:09.396Z,12.47
2019-02-19T11:13:09.130Z,12.43
2019-02-19T11:14:09.388Z,12.54
2019-02-19T11:15:09.374Z,12.67
2019-02-19T11:16:09.124Z,12.7
2019-02-19T11:17:09.394Z,12.68
2019-02-19T11:18:09.607Z,12.78
2019-02-19T11:19:09.625Z,12.9
2019-02-19T11:20:09.628Z,12.94
2019-02-19T11:21:09.109Z,12.93
2019-02-19T11:22:09.352Z,13.09
2019-02-19T11:23:09.105Z,13.22
2019-02-19T11:24:09.113Z,13.25
2019-02-19T11:25:09.379Z,13.31
2019-02-19T11:26:09.592Z,13.38
2019-02-19T11:27:09.101Z,13.47
2019-02-19T11:28:09.344Z,13.56
2019-02-19T11:29:09.585Z,13.63
2019-02-19T11:30:09.346Z,13.78
2019-02-19T11:31:09.587Z,13.9
2019-02-19T11:32:09.581Z,13.86
2019-02-19T11:33:09.593Z,13.9
2019-02-19T11:34:09.587Z,13.79
2019-02-19T11:35:09.598Z,13.79
2019-02-19T11:36:09.336Z,13.93
2019-02-19T11:37:09.349Z,13.95
2019-02-19T11:38:09.574Z,13.93
2019-02-19T11:39:09.570Z,13.96
2019-02-19T11:40:09.331Z,14.05
2019-02-19T11:41:09.570Z,14.2
2019-02-19T11:42:09.702Z,14.28
2019-02-19T11:43:09.583Z,14.36
2019-02-19T11:44:09.319Z,14.3
2019-02-19T11:45:09.353Z,14.17
2019-02-19T11:46:09.316Z,13.92
2019-02-19T11:47:09.580Z,13.87
2019-02-19T11:48:09.319Z,13.89
2019-02-19T11:49:09.309Z,13.9
2019-02-19T11:50:09.560Z,13.9
2019-02-19T11:51:09.594Z,13.85
2019-02-19T11:52:09.576Z,13.78
2019-02-19T11:53:09.552Z,13.68
2019-02-19T11:54:09.316Z,13.68
2019-02-19T11:55:09.295Z,13.54
2019-02-19T11:56:09.308Z,13.6
2019-02-19T11:57:09.320Z,13.53
2019-02-19T11:58:09.300Z,13.47
2019-02-19T11:59:11.206Z,13.5
2019-02-19T12:00:09.290Z,13.31
2019-02-19T12:01:09.520Z,13.25
2019-02-19T12:02:09.534Z,13.25
2019-02-19T12:03:09.520Z,13.12
2019-02-19T12:04:09.282Z,13.13
2019-02-19T12:05:09.281Z,13
2019-02-19T12:06:09.281Z,12.98
2019-02-19T12:07:09.578Z,13.01
2019-02-19T12:08:09.014Z,12.98
2019-02-19T12:09:09.277Z,12.9
2019-02-19T12:10:09.353Z,12.82
2019-02-19T12:11:09.015Z,12.75
2019-02-19T12:12:09.500Z,12.67
2019-02-19T12:13:09.270Z,12.72
2019-02-19T12:14:09.505Z,12.7
2019-02-19T12:15:09.253Z,12.6
2019-02-19T12:16:09.002Z,12.61
2019-02-19T12:17:09.251Z,12.6
2019-02-19T12:18:09.485Z,12.5
2019-02-19T12:19:09.243Z,12.55
2019-02-19T12:20:09.230Z,12.46
2019-02-19T12:21:10.650Z,12.4
2019-02-19T12:22:09.485Z,12.32
2019-02-19T12:23:09.481Z,12.21
2019-02-19T12:24:09.462Z,12.25
2019-02-19T12:25:09.459Z,12.27
2019-02-19T12:26:09.460Z,12.36
2019-02-19T12:27:11.381Z,12.25
2019-02-19T12:28:09.194Z,12.37
2019-02-19T12:29:09.208Z,12.27
2019-02-19T12:30:09.196Z,12.25
2019-02-19T12:31:09.217Z,12.37
2019-02-19T12:32:09.461Z,12.36
2019-02-19T12:33:09.180Z,12.37
2019-02-19T12:34:09.177Z,12.22
2019-02-19T12:35:09.178Z,12.29
2019-02-19T12:36:09.422Z,12.31
2019-02-19T12:37:09.418Z,12.39
2019-02-19T12:38:09.161Z,12.36
2019-02-19T12:39:09.159Z,12.37
2019-02-19T12:40:09.157Z,12.46
2019-02-19T12:41:09.205Z,12.45
2019-02-19T12:42:08.911Z,12.43
2019-02-19T12:43:09.163Z,12.36
2019-02-19T12:44:09.151Z,12.47
2019-02-19T12:45:09.387Z,12.5
2019-02-19T12:46:09.374Z,12.5
2019-02-19T12:47:09.443Z,12.4
2019-02-19T12:48:09.133Z,12.32
2019-02-19T12:49:09.121Z,12.37
2019-02-19T12:50:09.370Z,12.43
2019-02-19T12:51:09.385Z,12.4
2019-02-19T12:52:09.370Z,12.46
2019-02-19T12:53:09.359Z,12.47
2019-02-19T12:54:09.115Z,12.36
2019-02-19T12:55:09.124Z,12.31
2019-02-19T12:56:09.356Z,12.39
2019-02-19T12:57:09.105Z,12.28
2019-02-19T12:58:09.104Z,12.22
2019-02-19T12:59:09.338Z,12.18
2019-02-19T13:00:09.358Z,12.12
2019-02-19T13:01:09.326Z,12.06
2019-02-19T13:02:09.087Z,11.95
2019-02-19T13:03:09.094Z,11.97
2019-02-19T13:04:09.319Z,11.91
2019-02-19T13:05:09.362Z,11.83
2019-02-19T13:06:09.062Z,11.78
2019-02-19T13:07:09.127Z,11.81
2019-02-19T13:08:09.045Z,11.75
2019-02-19T13:09:09.292Z,11.78
2019-02-19T13:10:09.041Z,11.73
2019-02-19T13:11:09.304Z,11.65
2019-02-19T13:12:10.531Z,11.54
2019-02-19T13:13:09.297Z,11.6
2019-02-19T13:14:09.299Z,11.55